Time;durP1;ratioP1;P1;durP2;ratioP2;P2;SDS_P1;SDS_P2;PMS_P1;PMS_P2;Temp;Humidity;BMP_temperature;BMP_pressure;BME280_temperature;BME280_humidity;BME280_pressure;Samples;Min_cycle;Max_cycle;Signal;HPM_P1;HPM_P2
2023/01/21 00:00:00;;;;;;;10.33;6.87;;;;;;;;;;5064997;28;20186;-89
2023/01/21 00:02:26;;;;;;;9.47;7.20;;;;;;;;;;5075073;28;20183;-89
2023/01/21 00:04:51;;;;;;;9.10;6.17;;;;;;;;;;5061385;28;20202;-90
2023/01/21 00:07:16;;;;;;;9.63;7.20;;;;;;;;;;5059779;28;20183;-89
2023/01/21 00:09:41;;;;;;;9.53;6.80;;;;;;;;;;5080192;28;20180;-90
2023/01/21 00:12:07;;;;;;;8.73;6.73;;;;;;;;;;5058627;28;20179;-88
2023/01/21 00:14:32;;;;;;;8.83;7.93;;;;;;;;;;5062821;28;20197;-89
2023/01/21 00:16:57;;;;;;;11.93;9.37;;;;;;;;;;5058820;28;20166;-88
2023/01/21 00:19:23;;;;;;;10.63;7.77;;;;;;;;;;5061098;28;20178;-88
2023/01/21 00:21:48;;;;;;;9.83;7.60;;;;;;;;;;5064163;28;20187;-89
2023/01/21 00:24:14;;;;;;;10.87;7.30;;;;;;;;;;5081127;28;20188;-88
2023/01/21 00:26:39;;;;;;;12.23;8.10;;;;;;;;;;5059931;28;20211;-89
2023/01/21 00:29:04;;;;;;;11.67;8.00;;;;;;;;;;5066498;28;20186;-90
2023/01/21 00:31:29;;;;;;;8.80;6.70;;;;;;;;;;5065108;28;20216;-88
2023/01/21 00:33:54;;;;;;;8.33;6.93;;;;;;;;;;5068674;28;20172;-89
2023/01/21 00:36:21;;;;;;;8.77;6.20;;;;;;;;;;5063860;28;20198;-89
2023/01/21 00:38:49;;;;;;;9.47;6.90;;;;;;;;;;5064133;28;20215;-88
2023/01/21 00:41:14;;;;;;;8.43;6.47;;;;;;;;;;5064121;28;20213;-89
2023/01/21 00:43:40;;;;;;;7.53;6.03;;;;;;;;;;5064232;28;20247;-89
2023/01/21 00:46:05;;;;;;;10.27;6.67;;;;;;;;;;5067109;28;20215;-88
2023/01/21 00:48:31;;;;;;;8.40;6.63;;;;;;;;;;5062076;28;20288;-89
2023/01/21 00:50:59;;;;;;;6.57;5.70;;;;;;;;;;5066332;28;20204;-88
2023/01/21 00:53:24;;;;;;;7.57;5.70;;;;;;;;;;5063251;28;20175;-88
2023/01/21 00:55:50;;;;;;;7.33;5.90;;;;;;;;;;5066749;28;20170;-88
2023/01/21 00:58:15;;;;;;;7.73;5.13;;;;;;;;;;5056627;28;20178;-89
2023/01/21 01:00:40;;;;;;;7.80;5.23;;;;;;;;;;5059598;28;20240;-89
2023/01/21 01:03:05;;;;;;;6.60;5.47;;;;;;;;;;5063175;28;20186;-89
2023/01/21 01:05:31;;;;;;;6.37;5.00;;;;;;;;;;5063267;28;20272;-88
2023/01/21 01:07:56;;;;;;;6.90;5.03;;;;;;;;;;5073529;28;20185;-88
2023/01/21 01:10:21;;;;;;;7.43;5.20;;;;;;;;;;5073972;28;20212;-88
2023/01/21 01:12:47;;;;;;;5.43;4.67;;;;;;;;;;5062463;28;20269;-88
2023/01/21 01:15:12;;;;;;;5.77;4.23;;;;;;;;;;5067772;28;20174;-88
2023/01/21 01:17:37;;;;;;;7.20;4.43;;;;;;;;;;5073461;28;20204;-88
2023/01/21 01:20:02;;;;;;;7.23;4.80;;;;;;;;;;5069412;28;20177;-88
2023/01/21 01:22:28;;;;;;;4.50;3.90;;;;;;;;;;5060440;28;20212;-89
2023/01/21 01:24:53;;;;;;;5.07;4.17;;;;;;;;;;5059898;28;20202;-88
2023/01/21 01:27:18;;;;;;;5.83;4.63;;;;;;;;;;5065699;28;20306;-89
2023/01/21 01:29:43;;;;;;;8.40;5.83;;;;;;;;;;5070507;28;20272;-88
2023/01/21 01:32:09;;;;;;;6.13;4.47;;;;;;;;;;5064491;28;20288;-89
2023/01/21 01:34:34;;;;;;;5.47;3.97;;;;;;;;;;5070419;28;20201;-88
2023/01/21 01:36:59;;;;;;;6.13;4.50;;;;;;;;;;5064228;28;20313;-89
2023/01/21 01:39:24;;;;;;;5.77;3.87;;;;;;;;;;5065505;28;20222;-88
2023/01/21 01:41:50;;;;;;;5.60;4.57;;;;;;;;;;5072966;28;20264;-89
2023/01/21 01:44:34;;;;;;;6.80;5.20;;;;;;;;;;5069973;28;20213;-88
2023/01/21 01:47:01;;;;;;;5.80;4.77;;;;;;;;;;5074427;28;20236;-89
2023/01/21 01:49:26;;;;;;;5.43;4.47;;;;;;;;;;5072563;28;20287;-88
2023/01/21 01:51:51;;;;;;;7.73;4.53;;;;;;;;;;5073282;28;20198;-88
2023/01/21 01:54:19;;;;;;;6.67;5.00;;;;;;;;;;5074711;28;20192;-89
2023/01/21 01:56:46;;;;;;;7.80;5.53;;;;;;;;;;5066003;28;20175;-89
2023/01/21 01:59:12;;;;;;;6.93;5.20;;;;;;;;;;5065167;28;20200;-88
2023/01/21 02:01:37;;;;;;;6.13;4.60;;;;;;;;;;5070904;28;20208;-88
2023/01/21 02:04:06;;;;;;;5.67;4.40;;;;;;;;;;5070761;28;20261;-89
2023/01/21 02:06:31;;;;;;;6.90;5.23;;;;;;;;;;5068935;28;20174;-89
2023/01/21 02:08:56;;;;;;;7.53;5.47;;;;;;;;;;5072608;28;20267;-88
2023/01/21 02:11:22;;;;;;;6.87;4.57;;;;;;;;;;5069638;28;20301;-87
2023/01/21 02:13:50;;;;;;;7.03;6.00;;;;;;;;;;5084933;28;20178;-88
2023/01/21 02:16:25;;;;;;;6.60;4.83;;;;;;;;;;5066710;28;20219;-88
2023/01/21 02:19:26;;;;;;;6.07;5.10;;;;;;;;;;5066237;28;20177;-88
2023/01/21 02:21:57;;;;;;;7.73;5.03;;;;;;;;;;5000740;28;20184;-88
2023/01/21 02:24:25;;;;;;;7.80;5.70;;;;;;;;;;5064888;28;20203;-88
2023/01/21 02:27:09;;;;;;;8.00;5.43;;;;;;;;;;5066148;28;20199;-89
2023/01/21 02:29:52;;;;;;;7.30;5.43;;;;;;;;;;5065655;28;20174;-88
2023/01/21 02:32:26;;;;;;;6.00;4.60;;;;;;;;;;5069576;28;20193;-88
2023/01/21 02:35:06;;;;;;;6.00;4.67;;;;;;;;;;5066855;28;20177;-88
2023/01/21 02:37:31;;;;;;;6.50;5.03;;;;;;;;;;5069231;28;20170;-88
2023/01/21 02:40:00;;;;;;;8.80;5.00;;;;;;;;;;5066941;28;20308;-88
2023/01/21 02:42:38;;;;;;;6.87;4.67;;;;;;;;;;5075599;28;20249;-88
2023/01/21 02:45:04;;;;;;;8.03;4.87;;;;;;;;;;5063074;28;20174;-88
2023/01/21 02:47:29;;;;;;;6.90;4.97;;;;;;;;;;5073676;28;20167;-88
2023/01/21 02:49:57;;;;;;;5.37;4.87;;;;;;;;;;5059362;28;20399;-88
2023/01/21 02:52:23;;;;;;;5.93;4.70;;;;;;;;;;5063735;28;20178;-87
2023/01/21 02:54:50;;;;;;;7.80;5.70;;;;;;;;;;5068286;28;20183;-88
2023/01/21 02:57:18;;;;;;;5.70;5.10;;;;;;;;;;5066036;28;20183;-88
2023/01/21 02:59:45;;;;;;;8.17;5.70;;;;;;;;;;5059630;28;20178;-88
2023/01/21 03:02:25;;;;;;;8.67;5.10;;;;;;;;;;5067772;28;20487;-89
2023/01/21 03:05:09;;;;;;;8.23;5.80;;;;;;;;;;5065971;28;20179;-88
2023/01/21 03:07:38;;;;;;;7.30;5.13;;;;;;;;;;5061440;28;20181;-88
2023/01/21 03:10:07;;;;;;;7.87;5.20;;;;;;;;;;5066636;28;20187;-88
2023/01/21 03:12:46;;;;;;;9.20;5.67;;;;;;;;;;5061658;28;20189;-88
2023/01/21 03:18:03;;;;;;;6.67;4.83;;;;;;;;;;5067658;28;20187;-88
2023/01/21 03:20:39;;;;;;;6.67;5.07;;;;;;;;;;5067303;28;20186;-88
2023/01/21 03:23:07;;;;;;;6.93;4.60;;;;;;;;;;5083464;28;20230;-88
2023/01/21 03:25:33;;;;;;;6.83;5.63;;;;;;;;;;5076222;28;20193;-88
2023/01/21 03:27:59;;;;;;;6.77;5.43;;;;;;;;;;5067069;28;20189;-88
2023/01/21 03:30:26;;;;;;;7.43;4.93;;;;;;;;;;5057657;28;20207;-89
2023/01/21 03:32:53;;;;;;;8.50;5.07;;;;;;;;;;5069772;28;20235;-89
2023/01/21 03:35:24;;;;;;;7.37;5.47;;;;;;;;;;5069028;28;20208;-88
2023/01/21 03:38:01;;;;;;;6.97;5.33;;;;;;;;;;5064468;28;20392;-88
2023/01/21 03:40:34;;;;;;;6.40;5.07;;;;;;;;;;5065888;28;20248;-88
2023/01/21 03:42:59;;;;;;;8.63;6.00;;;;;;;;;;5063667;28;20295;-87
2023/01/21 03:45:36;;;;;;;5.83;5.00;;;;;;;;;;5067154;28;20681;-88
2023/01/21 03:48:08;;;;;;;7.73;5.20;;;;;;;;;;5067526;28;20212;-88
2023/01/21 03:50:39;;;;;;;7.20;5.03;;;;;;;;;;5078522;28;20234;-88
2023/01/21 03:53:05;;;;;;;6.57;4.90;;;;;;;;;;5074583;28;20183;-87
2023/01/21 03:55:30;;;;;;;5.37;4.83;;;;;;;;;;5069122;28;20175;-87
2023/01/21 03:57:55;;;;;;;6.60;5.13;;;;;;;;;;5087488;28;20181;-88
2023/01/21 04:00:21;;;;;;;5.53;4.63;;;;;;;;;;5065622;28;20181;-88
2023/01/21 04:02:46;;;;;;;5.47;4.37;;;;;;;;;;5065102;28;20186;-87
2023/01/21 04:05:13;;;;;;;5.67;4.10;;;;;;;;;;5064793;28;20364;-87
2023/01/21 04:07:38;;;;;;;5.07;3.80;;;;;;;;;;5065351;28;20432;-88
2023/01/21 04:10:03;;;;;;;5.70;4.20;;;;;;;;;;5075751;28;20178;-87
2023/01/21 04:12:29;;;;;;;4.40;4.00;;;;;;;;;;5061823;28;20287;-87
2023/01/21 04:14:54;;;;;;;7.17;4.80;;;;;;;;;;5069810;28;20182;-87
2023/01/21 04:17:19;;;;;;;5.50;4.23;;;;;;;;;;5069806;28;20262;-88
2023/01/21 04:19:44;;;;;;;5.70;4.13;;;;;;;;;;5077928;28;20178;-87
2023/01/21 04:22:10;;;;;;;5.87;4.00;;;;;;;;;;5064714;28;20179;-87
2023/01/21 04:24:35;;;;;;;5.87;4.73;;;;;;;;;;5065502;28;20181;-88
2023/01/21 04:27:00;;;;;;;6.43;4.47;;;;;;;;;;5066668;28;20184;-88
2023/01/21 04:29:25;;;;;;;5.43;4.17;;;;;;;;;;5068893;28;20181;-88
2023/01/21 04:31:51;;;;;;;6.63;4.50;;;;;;;;;;5065201;28;20210;-87
2023/01/21 04:34:16;;;;;;;6.43;4.23;;;;;;;;;;5066226;28;20188;-87
2023/01/21 04:36:41;;;;;;;4.60;3.47;;;;;;;;;;5067169;28;20197;-87
2023/01/21 04:39:07;;;;;;;5.20;4.03;;;;;;;;;;5057714;28;20279;-87
2023/01/21 04:41:32;;;;;;;5.80;4.10;;;;;;;;;;5066023;28;20274;-87
2023/01/21 04:43:57;;;;;;;5.03;3.90;;;;;;;;;;5062136;28;20194;-88
2023/01/21 04:46:22;;;;;;;4.97;3.83;;;;;;;;;;5067023;28;20216;-87
2023/01/21 04:48:48;;;;;;;5.77;4.10;;;;;;;;;;5077113;28;20266;-87
2023/01/21 04:51:13;;;;;;;4.37;3.50;;;;;;;;;;5061775;28;20209;-88
2023/01/21 04:53:38;;;;;;;4.27;3.40;;;;;;;;;;5063523;28;20171;-88
2023/01/21 04:56:04;;;;;;;4.30;3.70;;;;;;;;;;5068075;28;20170;-87
2023/01/21 04:58:29;;;;;;;4.37;3.20;;;;;;;;;;5067482;28;20170;-87
2023/01/21 05:00:54;;;;;;;5.73;4.20;;;;;;;;;;5064596;28;20182;-88
2023/01/21 05:03:19;;;;;;;5.50;3.97;;;;;;;;;;5066611;28;21844;-87
2023/01/21 05:05:45;;;;;;;4.80;4.00;;;;;;;;;;5064050;28;20181;-87
2023/01/21 05:08:10;;;;;;;5.57;3.83;;;;;;;;;;5061340;28;20169;-86
2023/01/21 05:10:35;;;;;;;5.60;4.40;;;;;;;;;;5060171;28;20204;-87
2023/01/21 05:13:00;;;;;;;5.57;4.00;;;;;;;;;;5064395;28;20181;-88
2023/01/21 05:15:25;;;;;;;7.63;3.90;;;;;;;;;;5077677;28;20177;-87
2023/01/21 05:17:51;;;;;;;4.77;4.13;;;;;;;;;;5069520;28;20173;-87
2023/01/21 05:20:16;;;;;;;6.47;4.67;;;;;;;;;;5067356;28;20177;-86
2023/01/21 05:22:44;;;;;;;9.00;5.40;;;;;;;;;;5067018;28;20283;-87
2023/01/21 05:25:09;;;;;;;8.30;5.23;;;;;;;;;;5071013;28;20264;-86
2023/01/21 05:27:34;;;;;;;7.13;5.03;;;;;;;;;;5059507;28;20265;-86
2023/01/21 05:29:59;;;;;;;5.50;4.30;;;;;;;;;;5059162;28;20177;-86
2023/01/21 05:32:25;;;;;;;5.10;4.13;;;;;;;;;;5056798;28;20178;-86
2023/01/21 05:34:50;;;;;;;5.33;4.17;;;;;;;;;;5076251;28;20320;-87
2023/01/21 05:37:15;;;;;;;6.17;5.50;;;;;;;;;;5063787;28;20225;-86
2023/01/21 05:39:40;;;;;;;7.10;5.13;;;;;;;;;;5054045;28;20174;-87
2023/01/21 05:42:06;;;;;;;8.67;5.37;;;;;;;;;;5051295;28;20296;-86
2023/01/21 05:44:31;;;;;;;9.37;5.10;;;;;;;;;;5068483;28;20466;-87
2023/01/21 05:46:56;;;;;;;6.53;4.70;;;;;;;;;;5064234;28;20213;-87
2023/01/21 05:49:21;;;;;;;4.83;4.37;;;;;;;;;;5070370;28;20200;-87
2023/01/21 05:51:47;;;;;;;7.47;4.87;;;;;;;;;;5058663;28;20281;-86
2023/01/21 05:54:12;;;;;;;4.33;3.70;;;;;;;;;;5066368;28;20227;-87
2023/01/21 05:56:37;;;;;;;4.60;3.67;;;;;;;;;;5058782;28;20174;-88
2023/01/21 05:59:02;;;;;;;4.10;3.70;;;;;;;;;;5070513;28;20170;-87
2023/01/21 06:01:28;;;;;;;4.47;3.50;;;;;;;;;;5068762;28;20234;-87
2023/01/21 06:03:53;;;;;;;4.17;3.47;;;;;;;;;;5060390;28;20240;-88
2023/01/21 06:06:18;;;;;;;6.23;4.27;;;;;;;;;;5067747;28;20185;-87
2023/01/21 06:08:43;;;;;;;4.50;3.67;;;;;;;;;;5064256;28;20181;-87
2023/01/21 06:11:08;;;;;;;7.77;5.13;;;;;;;;;;5070995;28;20251;-87
2023/01/21 06:13:34;;;;;;;8.53;4.83;;;;;;;;;;5070582;28;20201;-86
2023/01/21 06:15:59;;;;;;;7.03;5.47;;;;;;;;;;5068873;28;20181;-86
2023/01/21 06:18:24;;;;;;;5.77;5.17;;;;;;;;;;5084438;28;20166;-87
2023/01/21 06:20:49;;;;;;;5.60;4.90;;;;;;;;;;5066578;28;20177;-87
2023/01/21 06:23:15;;;;;;;7.50;5.97;;;;;;;;;;5079839;28;20189;-87
2023/01/21 06:25:42;;;;;;;11.03;6.40;;;;;;;;;;5070528;28;20174;-87
2023/01/21 06:28:07;;;;;;;7.33;5.50;;;;;;;;;;5071322;28;20208;-87
2023/01/21 06:30:33;;;;;;;8.70;6.17;;;;;;;;;;5073925;28;20198;-87
2023/01/21 06:32:58;;;;;;;8.17;6.73;;;;;;;;;;5080530;28;20193;-86
2023/01/21 06:35:23;;;;;;;6.10;5.00;;;;;;;;;;5075438;28;20208;-87
2023/01/21 06:37:48;;;;;;;12.90;4.50;;;;;;;;;;5075629;28;20202;-86
2023/01/21 06:40:14;;;;;;;7.67;6.30;;;;;;;;;;5083610;28;20187;-87
2023/01/21 06:42:39;;;;;;;10.53;7.60;;;;;;;;;;5070217;28;20221;-87
2023/01/21 06:45:05;;;;;;;9.43;6.03;;;;;;;;;;5067975;28;20315;-87
2023/01/21 06:47:30;;;;;;;7.63;5.70;;;;;;;;;;5064894;28;20222;-86
2023/01/21 06:49:55;;;;;;;7.97;5.57;;;;;;;;;;5061254;28;20185;-87
2023/01/21 06:52:20;;;;;;;7.93;5.53;;;;;;;;;;5072193;28;20174;-86
2023/01/21 06:54:47;;;;;;;10.03;7.07;;;;;;;;;;5071011;28;20256;-87
2023/01/21 06:57:12;;;;;;;8.37;6.60;;;;;;;;;;5061505;28;20182;-87
2023/01/21 06:59:37;;;;;;;6.90;5.30;;;;;;;;;;5069217;28;20176;-87
2023/01/21 07:02:03;;;;;;;9.03;6.27;;;;;;;;;;5069102;28;20253;-87
2023/01/21 07:04:28;;;;;;;8.40;6.13;;;;;;;;;;5066555;28;20300;-87
2023/01/21 07:06:53;;;;;;;9.37;6.80;;;;;;;;;;5069927;28;20177;-86
2023/01/21 07:09:19;;;;;;;9.93;6.97;;;;;;;;;;5064421;28;20191;-87
2023/01/21 07:11:44;;;;;;;8.70;6.40;;;;;;;;;;5073248;28;20196;-87
2023/01/21 07:14:10;;;;;;;10.47;7.50;;;;;;;;;;5070390;28;20173;-87
2023/01/21 07:16:35;;;;;;;10.27;6.60;;;;;;;;;;5074699;28;20176;-86
2023/01/21 07:19:00;;;;;;;6.53;5.40;;;;;;;;;;5072675;28;20295;-87
2023/01/21 07:21:26;;;;;;;12.03;7.63;;;;;;;;;;5081934;28;20238;-87
2023/01/21 07:23:52;;;;;;;8.00;6.70;;;;;;;;;;5070194;28;20165;-86
2023/01/21 07:26:17;;;;;;;7.90;5.40;;;;;;;;;;5061507;28;20235;-86
2023/01/21 07:28:42;;;;;;;9.90;6.57;;;;;;;;;;5066208;28;20184;-87
2023/01/21 07:31:08;;;;;;;11.73;8.67;;;;;;;;;;5063169;28;20205;-87
2023/01/21 07:33:33;;;;;;;10.97;8.40;;;;;;;;;;5063333;28;20257;-86
2023/01/21 07:35:58;;;;;;;10.67;7.70;;;;;;;;;;5070552;28;20189;-86
2023/01/21 07:38:24;;;;;;;12.00;6.50;;;;;;;;;;5070452;28;20181;-86
2023/01/21 07:40:49;;;;;;;14.77;8.60;;;;;;;;;;5066519;28;20177;-86
2023/01/21 07:43:15;;;;;;;11.20;8.10;;;;;;;;;;5069641;28;20235;-87
2023/01/21 07:45:40;;;;;;;10.67;8.20;;;;;;;;;;5069231;28;20173;-87
2023/01/21 07:48:05;;;;;;;5.43;3.43;;;;;;;;;;5065135;28;20181;-86
2023/01/21 07:50:31;;;;;;;10.47;6.83;;;;;;;;;;5067826;28;20205;-86
2023/01/21 07:52:58;;;;;;;14.27;8.33;;;;;;;;;;5068757;28;20176;-85
2023/01/21 07:55:23;;;;;;;12.67;7.43;;;;;;;;;;5063230;28;20174;-86
2023/01/21 07:57:48;;;;;;;11.90;8.57;;;;;;;;;;5065252;28;20178;-87
2023/01/21 08:00:14;;;;;;;11.77;8.83;;;;;;;;;;5066843;28;20207;-86
2023/01/21 08:02:39;;;;;;;9.83;7.30;;;;;;;;;;5063947;28;20208;-85
2023/01/21 08:05:05;;;;;;;11.97;8.83;;;;;;;;;;5065016;28;20177;-87
2023/01/21 08:07:30;;;;;;;14.17;9.90;;;;;;;;;;5065864;28;20174;-87
2023/01/21 08:09:56;;;;;;;13.37;9.10;;;;;;;;;;5065478;28;20188;-87
2023/01/21 08:12:21;;;;;;;11.73;9.80;;;;;;;;;;5061831;28;20206;-86
2023/01/21 08:14:46;;;;;;;14.60;9.57;;;;;;;;;;5061717;28;20184;-86
2023/01/21 08:17:11;;;;;;;12.67;6.47;;;;;;;;;;5084162;28;20260;-86
2023/01/21 08:19:37;;;;;;;16.13;9.13;;;;;;;;;;5060154;28;20324;-86
2023/01/21 08:22:02;;;;;;;9.90;6.57;;;;;;;;;;5066542;28;20181;-86
2023/01/21 08:24:27;;;;;;;6.80;3.87;;;;;;;;;;5068198;28;20196;-88
2023/01/21 08:26:56;;;;;;;20.13;11.80;;;;;;;;;;5069703;28;20188;-86
2023/01/21 08:29:21;;;;;;;13.43;8.87;;;;;;;;;;5062143;28;20178;-86
2023/01/21 08:31:46;;;;;;;14.47;8.37;;;;;;;;;;5063090;28;20190;-86
2023/01/21 08:34:11;;;;;;;20.80;11.07;;;;;;;;;;5067347;28;20207;-87
2023/01/21 08:36:37;;;;;;;18.73;8.80;;;;;;;;;;5060766;28;20189;-86
2023/01/21 08:39:05;;;;;;;13.03;8.77;;;;;;;;;;5062496;28;20177;-86
2023/01/21 08:41:30;;;;;;;19.47;11.13;;;;;;;;;;5067790;28;20213;-87
2023/01/21 08:43:56;;;;;;;22.83;12.60;;;;;;;;;;5061795;28;20239;-86
2023/01/21 08:46:21;;;;;;;15.00;8.00;;;;;;;;;;5067257;28;20177;-86
2023/01/21 08:48:46;;;;;;;18.97;9.40;;;;;;;;;;5064913;28;20189;-86
2023/01/21 08:51:11;;;;;;;20.57;10.63;;;;;;;;;;5066509;28;20209;-82
2023/01/21 08:53:36;;;;;;;16.37;8.87;;;;;;;;;;5065456;28;20193;-84
2023/01/21 08:56:02;;;;;;;12.50;7.93;;;;;;;;;;5068284;28;20177;-84
2023/01/21 08:58:28;;;;;;;9.67;6.43;;;;;;;;;;5060743;28;20169;-83
2023/01/21 09:00:54;;;;;;;25.00;12.87;;;;;;;;;;5064672;28;20176;-84
2023/01/21 09:03:19;;;;;;;18.17;10.17;;;;;;;;;;5060760;28;20243;-84
2023/01/21 09:05:45;;;;;;;24.37;12.27;;;;;;;;;;5065141;28;20228;-84
2023/01/21 09:08:10;;;;;;;18.33;9.93;;;;;;;;;;5065550;28;20181;-84
2023/01/21 09:13:19;;;;;;;8.77;5.93;;;;;;;;;;5064672;28;20188;-84
2023/01/21 09:15:44;;;;;;;15.93;9.60;;;;;;;;;;5067647;28;20387;-84
2023/01/21 09:18:10;;;;;;;9.43;5.50;;;;;;;;;;5068070;28;20177;-84
2023/01/21 09:20:35;;;;;;;7.37;6.40;;;;;;;;;;5065033;28;20184;-84
2023/01/21 09:23:00;;;;;;;7.43;5.47;;;;;;;;;;5061797;28;20178;-84
2023/01/21 09:25:26;;;;;;;21.63;12.20;;;;;;;;;;5074651;28;20209;-76
2023/01/21 09:27:51;;;;;;;17.73;10.07;;;;;;;;;;5067492;28;20201;-83
2023/01/21 09:30:16;;;;;;;20.77;10.00;;;;;;;;;;5070837;28;20188;-82
2023/01/21 09:32:41;;;;;;;6.97;4.30;;;;;;;;;;5071986;28;20191;-83
2023/01/21 09:35:07;;;;;;;15.73;6.37;;;;;;;;;;5072013;28;20235;-81
2023/01/21 09:37:33;;;;;;;18.23;11.23;;;;;;;;;;5081870;28;20287;-82
2023/01/21 09:39:59;;;;;;;19.50;9.63;;;;;;;;;;5073625;28;20179;-83
2023/01/21 09:42:25;;;;;;;19.50;11.33;;;;;;;;;;5072009;28;20229;-83
2023/01/21 09:44:52;;;;;;;19.73;9.10;;;;;;;;;;5075203;28;20177;-83
2023/01/21 09:47:22;;;;;;;19.37;10.13;;;;;;;;;;5075829;28;20181;-83
2023/01/21 09:49:50;;;;;;;22.07;11.67;;;;;;;;;;5071202;28;20181;-82
2023/01/21 09:52:34;;;;;;;18.73;12.03;;;;;;;;;;5071434;28;20209;-83
2023/01/21 09:55:00;;;;;;;20.40;10.27;;;;;;;;;;5059121;28;20182;-82
2023/01/21 09:57:31;;;;;;;21.90;10.43;;;;;;;;;;5077372;28;20173;-83
2023/01/21 10:00:12;;;;;;;20.27;11.80;;;;;;;;;;5060600;28;20174;-83
2023/01/21 10:02:37;;;;;;;19.53;11.47;;;;;;;;;;5067601;28;20172;-83
2023/01/21 10:05:15;;;;;;;18.13;10.40;;;;;;;;;;5061080;28;20184;-83
2023/01/21 10:08:07;;;;;;;7.43;5.50;;;;;;;;;;5061904;28;20174;-83
2023/01/21 10:10:41;;;;;;;18.47;10.10;;;;;;;;;;5061394;28;20201;-82
2023/01/21 10:13:22;;;;;;;19.93;11.03;;;;;;;;;;5082401;28;20177;-82
2023/01/21 10:15:54;;;;;;;11.37;6.83;;;;;;;;;;5068068;28;20180;-82
2023/01/21 10:18:24;;;;;;;17.33;10.60;;;;;;;;;;5062610;28;20231;-83
2023/01/21 10:20:51;;;;;;;15.90;10.33;;;;;;;;;;5066052;28;20194;-82
2023/01/21 10:23:25;;;;;;;15.77;8.50;;;;;;;;;;5064632;28;20190;-83
2023/01/21 10:25:51;;;;;;;22.07;11.50;;;;;;;;;;5067387;28;20187;-83
2023/01/21 10:28:19;;;;;;;3.60;3.17;;;;;;;;;;5071232;28;20189;-82
2023/01/21 10:30:48;;;;;;;18.73;11.00;;;;;;;;;;5075541;28;20259;-83
2023/01/21 10:33:24;;;;;;;14.73;8.67;;;;;;;;;;5066609;28;20192;-83
2023/01/21 10:36:06;;;;;;;15.10;9.17;;;;;;;;;;5076279;28;20264;-83
2023/01/21 10:38:31;;;;;;;16.83;9.63;;;;;;;;;;5060569;28;20184;-82
2023/01/21 10:41:02;;;;;;;17.07;10.63;;;;;;;;;;5055799;28;20265;-83
2023/01/21 10:43:34;;;;;;;12.90;8.13;;;;;;;;;;5068965;28;20188;-82
2023/01/21 10:46:11;;;;;;;18.00;8.43;;;;;;;;;;5060657;28;20193;-83
2023/01/21 10:48:46;;;;;;;6.87;3.80;;;;;;;;;;5070882;28;20255;-83
2023/01/21 10:51:17;;;;;;;18.83;11.73;;;;;;;;;;5078609;28;20204;-84
2023/01/21 10:54:01;;;;;;;3.97;3.53;;;;;;;;;;5079873;28;20173;-83
2023/01/21 10:56:35;;;;;;;18.73;11.67;;;;;;;;;;5070911;28;20212;-83
2023/01/21 10:59:00;;;;;;;17.70;9.03;;;;;;;;;;5069038;28;20196;-83
2023/01/21 11:01:31;;;;;;;17.60;12.33;;;;;;;;;;5068169;28;20258;-83
2023/01/21 11:03:58;;;;;;;19.57;11.30;;;;;;;;;;5065955;28;20181;-84
2023/01/21 11:06:24;;;;;;;10.47;6.67;;;;;;;;;;5076278;28;20204;-83
2023/01/21 11:08:57;;;;;;;6.60;4.80;;;;;;;;;;5063919;28;20231;-84
2023/01/21 11:11:30;;;;;;;20.10;11.23;;;;;;;;;;5073179;28;20201;-84
2023/01/21 11:13:55;;;;;;;9.63;6.60;;;;;;;;;;5068622;28;20178;-84
2023/01/21 11:16:32;;;;;;;15.60;9.87;;;;;;;;;;5077361;28;20187;-84
2023/01/21 11:18:57;;;;;;;6.90;4.97;;;;;;;;;;5076540;28;20181;-84
2023/01/21 11:21:24;;;;;;;13.03;8.20;;;;;;;;;;5069116;28;20192;-84
2023/01/21 11:23:53;;;;;;;19.40;11.00;;;;;;;;;;5072932;28;20196;-84
2023/01/21 11:26:27;;;;;;;18.33;11.77;;;;;;;;;;5062005;28;20174;-83
2023/01/21 11:29:24;;;;;;;6.50;4.27;;;;;;;;;;5069863;28;20177;-82
2023/01/21 11:31:58;;;;;;;19.80;11.00;;;;;;;;;;5035290;28;20232;-84
2023/01/21 11:34:23;;;;;;;19.67;9.03;;;;;;;;;;5081321;28;20319;-84
2023/01/21 11:36:56;;;;;;;21.27;11.73;;;;;;;;;;5074575;28;20288;-83
2023/01/21 11:39:22;;;;;;;14.70;10.37;;;;;;;;;;5070491;28;20227;-82
2023/01/21 11:41:51;;;;;;;12.63;7.30;;;;;;;;;;5066766;28;20287;-82
2023/01/21 11:44:17;;;;;;;15.67;8.77;;;;;;;;;;5066417;28;20181;-84
2023/01/21 11:46:42;;;;;;;14.93;7.87;;;;;;;;;;5073483;28;20210;-84
2023/01/21 11:49:08;;;;;;;14.07;9.23;;;;;;;;;;5072249;28;20251;-83
2023/01/21 11:51:43;;;;;;;15.20;9.83;;;;;;;;;;5062006;28;20232;-84
2023/01/21 11:54:21;;;;;;;9.63;6.37;;;;;;;;;;5063837;28;20184;-84
2023/01/21 11:56:51;;;;;;;25.67;14.17;;;;;;;;;;5075457;28;20189;-84
2023/01/21 11:59:26;;;;;;;20.83;11.13;;;;;;;;;;5068971;28;20187;-84
2023/01/21 12:01:54;;;;;;;12.70;6.93;;;;;;;;;;5064814;28;20165;-84
2023/01/21 12:04:19;;;;;;;16.93;9.83;;;;;;;;;;5074737;28;20178;-83
2023/01/21 12:06:46;;;;;;;5.67;5.10;;;;;;;;;;5067462;28;20182;-83
2023/01/21 12:09:14;;;;;;;20.90;11.60;;;;;;;;;;5069166;28;20181;-83
2023/01/21 12:11:39;;;;;;;19.53;13.07;;;;;;;;;;5075406;28;20299;-83
2023/01/21 12:14:16;;;;;;;17.67;9.50;;;;;;;;;;5076616;28;20343;-83
2023/01/21 12:16:50;;;;;;;21.10;13.30;;;;;;;;;;5078490;28;20208;-84
2023/01/21 12:19:16;;;;;;;22.17;14.07;;;;;;;;;;5072224;28;20189;-83
2023/01/21 12:21:45;;;;;;;22.23;14.07;;;;;;;;;;5064214;28;20182;-83
2023/01/21 12:24:19;;;;;;;18.73;11.17;;;;;;;;;;5068987;28;20181;-82
2023/01/21 12:26:47;;;;;;;21.03;14.63;;;;;;;;;;5057064;28;20265;-82
2023/01/21 12:29:31;;;;;;;20.53;12.33;;;;;;;;;;5070916;28;20261;-84
2023/01/21 12:32:15;;;;;;;21.30;12.23;;;;;;;;;;5057914;28;20525;-87
2023/01/21 12:34:57;;;;;;;18.80;13.07;;;;;;;;;;5060907;28;20481;-85
2023/01/21 12:37:41;;;;;;;21.53;13.30;;;;;;;;;;5062634;28;20174;-78
2023/01/21 12:40:25;;;;;;;20.17;14.17;;;;;;;;;;5072245;28;20176;-77
2023/01/21 12:42:53;;;;;;;22.17;12.60;;;;;;;;;;5063520;28;20242;-77
2023/01/21 12:45:21;;;;;;;6.17;5.30;;;;;;;;;;5062685;28;20193;-85
2023/01/21 12:48:02;;;;;;;19.13;12.13;;;;;;;;;;5060869;28;20174;-86
2023/01/21 12:50:29;;;;;;;13.47;4.50;;;;;;;;;;5065142;28;20181;-85
2023/01/21 12:52:54;;;;;;;16.33;8.23;;;;;;;;;;5070987;28;20486;-86
2023/01/21 12:55:23;;;;;;;19.60;11.17;;;;;;;;;;5073043;28;20206;-86
2023/01/21 12:57:48;;;;;;;21.63;14.87;;;;;;;;;;5068479;28;20260;-84
2023/01/21 13:00:19;;;;;;;18.63;11.77;;;;;;;;;;5062045;28;20269;-85
2023/01/21 13:02:44;;;;;;;20.37;12.87;;;;;;;;;;5066409;28;20172;-86
2023/01/21 13:05:16;;;;;;;11.77;7.80;;;;;;;;;;5070339;28;20181;-85
2023/01/21 13:07:50;;;;;;;14.37;8.73;;;;;;;;;;5078243;28;20172;-86
2023/01/21 13:10:18;;;;;;;18.80;11.37;;;;;;;;;;5071909;28;20176;-85
2023/01/21 13:12:48;;;;;;;9.63;6.00;;;;;;;;;;5072369;28;20169;-86
2023/01/21 13:15:33;;;;;;;22.47;12.00;;;;;;;;;;5076759;28;20269;-85
2023/01/21 13:18:00;;;;;;;15.80;9.13;;;;;;;;;;5061003;28;20174;-85
2023/01/21 13:20:26;;;;;;;17.03;12.33;;;;;;;;;;5070728;28;20188;-85
2023/01/21 13:23:01;;;;;;;16.97;11.37;;;;;;;;;;5072739;28;20170;-85
2023/01/21 13:25:38;;;;;;;11.27;6.40;;;;;;;;;;5081126;28;20185;-87
2023/01/21 13:28:10;;;;;;;14.93;6.50;;;;;;;;;;5068552;28;20169;-84
2023/01/21 13:30:50;;;;;;;18.77;13.90;;;;;;;;;;5078395;28;20312;-85
2023/01/21 13:33:34;;;;;;;5.40;3.97;;;;;;;;;;5070201;28;20182;-86
2023/01/21 13:36:02;;;;;;;10.83;6.43;;;;;;;;;;5066210;28;20193;-86
2023/01/21 13:38:28;;;;;;;18.33;11.27;;;;;;;;;;5068963;28;20178;-85
2023/01/21 13:41:12;;;;;;;9.63;6.20;;;;;;;;;;5067174;28;20185;-86
2023/01/21 13:43:37;;;;;;;19.87;9.50;;;;;;;;;;5070241;28;20278;-86
2023/01/21 13:46:24;;;;;;;16.17;11.13;;;;;;;;;;5069688;28;20224;-84
2023/01/21 13:48:50;;;;;;;20.43;11.97;;;;;;;;;;5076580;28;20188;-86
2023/01/21 13:51:24;;;;;;;13.00;8.57;;;;;;;;;;5074967;28;20214;-86
2023/01/21 13:54:02;;;;;;;17.60;11.20;;;;;;;;;;5071491;28;20172;-86
2023/01/21 13:56:33;;;;;;;22.30;12.77;;;;;;;;;;5066192;28;20201;-85
2023/01/21 13:59:06;;;;;;;15.33;10.17;;;;;;;;;;5072768;28;20170;-85
2023/01/21 14:01:38;;;;;;;20.30;12.67;;;;;;;;;;5081677;28;20200;-85
2023/01/21 14:04:09;;;;;;;18.60;12.63;;;;;;;;;;5065178;28;20193;-86
2023/01/21 14:06:48;;;;;;;12.27;7.50;;;;;;;;;;5062948;28;20181;-86
2023/01/21 14:09:20;;;;;;;19.27;11.77;;;;;;;;;;5082609;28;20208;-85
2023/01/21 14:11:58;;;;;;;11.50;7.03;;;;;;;;;;5069791;28;20204;-85
2023/01/21 14:14:42;;;;;;;17.53;12.60;;;;;;;;;;5066247;28;20209;-86
2023/01/21 14:17:26;;;;;;;24.97;12.23;;;;;;;;;;5068891;28;20192;-85
2023/01/21 14:20:00;;;;;;;17.43;10.97;;;;;;;;;;5070852;28;20233;-86
2023/01/21 14:22:38;;;;;;;9.27;5.93;;;;;;;;;;5067383;28;20192;-85
2023/01/21 14:25:03;;;;;;;14.20;8.33;;;;;;;;;;5061347;28;20243;-85
2023/01/21 14:27:47;;;;;;;22.50;12.80;;;;;;;;;;5069357;28;20226;-85
2023/01/21 14:30:32;;;;;;;5.90;4.80;;;;;;;;;;5065529;28;20203;-85
2023/01/21 14:33:05;;;;;;;12.73;8.33;;;;;;;;;;5065590;28;20189;-84
2023/01/21 14:35:57;;;;;;;15.73;11.27;;;;;;;;;;5063248;28;20210;-85
2023/01/21 14:38:22;;;;;;;18.07;11.93;;;;;;;;;;5067987;28;20219;-85
2023/01/21 14:40:48;;;;;;;15.67;10.10;;;;;;;;;;5068210;28;20197;-87
2023/01/21 14:43:29;;;;;;;7.27;5.00;;;;;;;;;;5070519;28;20228;-85
2023/01/21 14:45:55;;;;;;;14.70;9.00;;;;;;;;;;5063016;28;20178;-86